Главная страница
METAR-TAF:

METAR-TAF

Аэропорты :

Элиста, Россия

широта: 46-22N, долгота: 044-20E, высота над уровнем моря: 150 м

Текущие метеонаблюдения

Эта сводка был подготовлена 24 минут назад, в 02:30 UTC
Ветер 8 Узел от западный
Температура 24°C
Влажность 34%
Давление 1013 hPa
Видимость 10 км и более

METAR: URWI 210230Z AUTO 28004MPS 9999 // ///110/// 24/07 Q1013

Время: 05:54 (02:54 UTC)

Прогноз

Эта сводка был подготовлена 15 часа и 54 минут назад, в 11:00 UTC
Прогноз действительный с 20-го 12 UTC до 20-го 21 UTC
Ветер 6 Узел от северо-западный с порывами до 16 Узел
Видимость 10 км и более
Отдельные облака на высоте 4000 фута
временами
С 20-го 12 UTC до 20-го 21 UTC
Ветер 10 Узел от северный с порывами до 19 Узел

TAF: URWI 201100Z 2012/2021 32003G08MPS 9999 SCT040 TEMPO 2012/2021 35005G10MPS

Метеонаблюдения и прогнозы для более 4000 аэропортов (сводки METAR и TAF).

Имеющиеся станции представлены на карте желтыми и красными точками.

Чтобы увидеть название станции, наведите на нее мышь.

Затем щелкните, чтобы увидеть метеонаблюдения и метеопрогнозы.

Управление картой: чтобы увеличить масштаб, щелкните зеленые кнопки с черным крестиком; чтобы уменьшить масштаб, щелкните зеленую кнопку с тире; для просмотра соседних карт щелкайте зеленые стрелки.


METAR-TAF: